Terminal Aerodrome Forecast
Issued by NWS

Home | Current Version | Previous Version | Graphics & Text | Print | Product List | Glossary Off
Versions: 1 2 3 4 5 6 7 8 9 10 11 12 13 14 15 16 17 18 19 20 21 22 23 24 25 26 27 28 29 30 31 32 33 34

080
FTUS43 KDDC 081140
TAFHYS
TAF
KHYS 081140Z 0812/0912 31007KT P6SM BKN080
     FM081600 34013G24KT P6SM SCT200
     FM090000 32007KT P6SM SCT200=

USA.gov is the U.S. government's official web portal to all federal, state and local government web resources and services.